Terminal Aerodrome Forecast
Issued by NWS

Home | Current Version | Previous Version | Text Only | Print | Product List | Glossary On
Versions: 1 2 3 4 5 6 7 8 9 10 11 12 13 14 15 16 17 18 19 20 21 22 23 24 25 26 27 28 29 30
000
FTAK31 PANC 132331
TAFACV
TAF
PACV 132331Z 1400/1424 09010KT P6SM VCSH SCT015 BKN035
     FM140200 VRB05KT P6SM -RA SCT015 BKN025
     FM140600 07003KT 4SM -RA BR OVC015
     FM141100 07004KT 1SM -RA BR OVC007=

USA.gov is the U.S. government's official web portal to all federal, state and local government web resources and services.